Beaver, Kansas
Current Conditions -  °F | °C
As of 11:55 PM on Wednesday 26 Nov 2014 (Local Time) from KGBD Reporting Station
Overcast Overcast  
Wind Chill: 32°   Ceiling: 11000
Heat Index: 32°   Visibility: 10mi
Dew Point: 18°   Wind: 3mph
Humidity: 55%   Direction: 30°NNE
Pressure: 30.45"   Gusts: NA
Location:  38.5656°N, 98.5907°W
Report Text: KGBD 270555Z AUTO 03003KT 10SM FEW080 OVC110 00/M08 A3045 RMK AO1 10030 21010 52017
Loading
Personal Weather Stations






























Interactive Weather Map New forecast layout! Learn more

10-Day Weather Forecast

Advertisements
Track Severe Weather on mobile